sensor_id;sensor_type;location;lat;lon;timestamp;P1;durP1;ratioP1;P2;durP2;ratioP2
66669;SDS011;53568;52.164;4.472;2023-04-03T00:01:31;2.55;;;2.52;;
66669;SDS011;53568;52.164;4.472;2023-04-03T00:03:56;2.67;;;2.65;;
66669;SDS011;53568;52.164;4.472;2023-04-03T00:06:22;2.21;;;2.20;;
66669;SDS011;53568;52.164;4.472;2023-04-03T00:08:49;2.45;;;2.43;;
66669;SDS011;53568;52.164;4.472;2023-04-03T00:11:15;2.20;;;2.18;;
66669;SDS011;53568;52.164;4.472;2023-04-03T00:13:41;2.28;;;2.26;;
66669;SDS011;53568;52.164;4.472;2023-04-03T00:16:07;2.29;;;2.28;;
66669;SDS011;53568;52.164;4.472;2023-04-03T00:18:34;2.22;;;2.22;;
66669;SDS011;53568;52.164;4.472;2023-04-03T00:21:00;2.04;;;2.03;;
66669;SDS011;53568;52.164;4.472;2023-04-03T00:23:26;2.06;;;2.05;;
66669;SDS011;53568;52.164;4.472;2023-04-03T00:25:52;2.13;;;2.12;;
66669;SDS011;53568;52.164;4.472;2023-04-03T00:28:18;2.11;;;2.09;;
66669;SDS011;53568;52.164;4.472;2023-04-03T00:30:44;2.13;;;2.12;;
66669;SDS011;53568;52.164;4.472;2023-04-03T00:33:13;2.27;;;2.27;;
66669;SDS011;53568;52.164;4.472;2023-04-03T00:35:39;2.19;;;2.18;;
66669;SDS011;53568;52.164;4.472;2023-04-03T00:38:05;2.28;;;2.27;;
66669;SDS011;53568;52.164;4.472;2023-04-03T00:40:34;2.19;;;2.19;;
66669;SDS011;53568;52.164;4.472;2023-04-03T00:43:04;2.24;;;2.23;;
66669;SDS011;53568;52.164;4.472;2023-04-03T00:45:54;2.31;;;2.28;;
66669;SDS011;53568;52.164;4.472;2023-04-03T00:50:53;2.16;;;2.12;;
66669;SDS011;53568;52.164;4.472;2023-04-03T00:53:23;2.46;;;2.42;;
66669;SDS011;53568;52.164;4.472;2023-04-03T00:55:56;2.37;;;2.32;;
66669;SDS011;53568;52.164;4.472;2023-04-03T00:58:25;2.36;;;2.33;;
66669;SDS011;53568;52.164;4.472;2023-04-03T01:11:05;2.33;;;2.30;;
66669;SDS011;53568;52.164;4.472;2023-04-03T01:13:32;2.34;;;2.31;;
66669;SDS011;53568;52.164;4.472;2023-04-03T01:16:02;2.36;;;2.34;;
66669;SDS011;53568;52.164;4.472;2023-04-03T01:18:30;2.40;;;2.38;;
66669;SDS011;53568;52.164;4.472;2023-04-03T01:21:25;2.29;;;2.27;;
66669;SDS011;53568;52.164;4.472;2023-04-03T01:26:58;2.34;;;2.33;;
66669;SDS011;53568;52.164;4.472;2023-04-03T01:29:27;2.17;;;2.17;;
66669;SDS011;53568;52.164;4.472;2023-04-03T01:31:57;2.48;;;2.47;;
66669;SDS011;53568;52.164;4.472;2023-04-03T01:34:25;2.20;;;2.18;;
66669;SDS011;53568;52.164;4.472;2023-04-03T01:36:51;2.35;;;2.32;;
66669;SDS011;53568;52.164;4.472;2023-04-03T01:39:17;2.55;;;2.53;;
66669;SDS011;53568;52.164;4.472;2023-04-03T01:41:44;2.47;;;2.46;;
66669;SDS011;53568;52.164;4.472;2023-04-03T01:44:10;2.41;;;2.40;;
66669;SDS011;53568;52.164;4.472;2023-04-03T01:46:35;2.36;;;2.36;;
66669;SDS011;53568;52.164;4.472;2023-04-03T01:49:02;2.39;;;2.38;;
66669;SDS011;53568;52.164;4.472;2023-04-03T01:51:28;2.42;;;2.41;;
66669;SDS011;53568;52.164;4.472;2023-04-03T01:53:54;2.43;;;2.42;;
66669;SDS011;53568;52.164;4.472;2023-04-03T01:56:20;2.42;;;2.42;;
66669;SDS011;53568;52.164;4.472;2023-04-03T01:58:45;2.58;;;2.56;;
66669;SDS011;53568;52.164;4.472;2023-04-03T02:01:11;2.26;;;2.26;;
66669;SDS011;53568;52.164;4.472;2023-04-03T02:03:36;2.24;;;2.23;;
66669;SDS011;53568;52.164;4.472;2023-04-03T02:06:02;2.55;;;2.54;;
66669;SDS011;53568;52.164;4.472;2023-04-03T02:08:27;2.80;;;2.79;;
66669;SDS011;53568;52.164;4.472;2023-04-03T02:10:53;2.71;;;2.70;;
66669;SDS011;53568;52.164;4.472;2023-04-03T02:13:18;2.59;;;2.56;;
66669;SDS011;53568;52.164;4.472;2023-04-03T02:15:44;2.63;;;2.58;;
66669;SDS011;53568;52.164;4.472;2023-04-03T02:18:11;2.48;;;2.44;;
66669;SDS011;53568;52.164;4.472;2023-04-03T02:20:37;2.47;;;2.44;;
66669;SDS011;53568;52.164;4.472;2023-04-03T02:23:03;2.77;;;2.75;;
66669;SDS011;53568;52.164;4.472;2023-04-03T02:25:30;2.54;;;2.52;;
66669;SDS011;53568;52.164;4.472;2023-04-03T02:27:56;2.96;;;2.93;;
66669;SDS011;53568;52.164;4.472;2023-04-03T02:30:22;2.95;;;2.91;;
66669;SDS011;53568;52.164;4.472;2023-04-03T02:32:47;2.84;;;2.81;;
66669;SDS011;53568;52.164;4.472;2023-04-03T02:35:13;2.67;;;2.66;;
66669;SDS011;53568;52.164;4.472;2023-04-03T02:37:38;2.70;;;2.69;;
66669;SDS011;53568;52.164;4.472;2023-04-03T02:40:04;3.06;;;3.04;;
66669;SDS011;53568;52.164;4.472;2023-04-03T02:42:31;2.91;;;2.89;;
66669;SDS011;53568;52.164;4.472;2023-04-03T02:44:56;2.91;;;2.89;;
66669;SDS011;53568;52.164;4.472;2023-04-03T02:47:22;2.83;;;2.82;;
66669;SDS011;53568;52.164;4.472;2023-04-03T02:49:47;2.95;;;2.94;;
66669;SDS011;53568;52.164;4.472;2023-04-03T02:52:13;2.63;;;2.61;;
66669;SDS011;53568;52.164;4.472;2023-04-03T02:54:39;2.82;;;2.79;;
66669;SDS011;53568;52.164;4.472;2023-04-03T02:57:05;2.82;;;2.79;;
66669;SDS011;53568;52.164;4.472;2023-04-03T02:59:34;2.89;;;2.84;;
66669;SDS011;53568;52.164;4.472;2023-04-03T03:02:05;3.01;;;2.98;;
66669;SDS011;53568;52.164;4.472;2023-04-03T03:04:34;2.77;;;2.75;;
66669;SDS011;53568;52.164;4.472;2023-04-03T03:07:00;2.93;;;2.90;;
66669;SDS011;53568;52.164;4.472;2023-04-03T03:09:25;2.91;;;2.88;;
66669;SDS011;53568;52.164;4.472;2023-04-03T03:11:51;2.88;;;2.85;;
66669;SDS011;53568;52.164;4.472;2023-04-03T03:14:17;2.84;;;2.82;;
66669;SDS011;53568;52.164;4.472;2023-04-03T03:16:43;3.07;;;3.03;;
66669;SDS011;53568;52.164;4.472;2023-04-03T03:19:08;2.99;;;2.96;;
66669;SDS011;53568;52.164;4.472;2023-04-03T03:21:34;3.10;;;3.09;;
66669;SDS011;53568;52.164;4.472;2023-04-03T03:24:00;3.25;;;3.22;;
66669;SDS011;53568;52.164;4.472;2023-04-03T03:26:25;3.08;;;3.03;;
66669;SDS011;53568;52.164;4.472;2023-04-03T03:28:51;3.06;;;3.01;;
66669;SDS011;53568;52.164;4.472;2023-04-03T03:31:17;3.00;;;2.96;;
66669;SDS011;53568;52.164;4.472;2023-04-03T03:33:42;3.17;;;3.14;;
66669;SDS011;53568;52.164;4.472;2023-04-03T03:36:08;3.03;;;3.00;;
66669;SDS011;53568;52.164;4.472;2023-04-03T03:38:33;3.03;;;3.00;;
66669;SDS011;53568;52.164;4.472;2023-04-03T03:40:59;3.29;;;3.26;;
66669;SDS011;53568;52.164;4.472;2023-04-03T03:43:24;3.19;;;3.16;;
66669;SDS011;53568;52.164;4.472;2023-04-03T03:45:51;3.24;;;3.21;;
66669;SDS011;53568;52.164;4.472;2023-04-03T03:48:18;3.25;;;3.23;;
66669;SDS011;53568;52.164;4.472;2023-04-03T03:50:44;3.35;;;3.33;;
66669;SDS011;53568;52.164;4.472;2023-04-03T03:53:10;3.42;;;3.40;;
66669;SDS011;53568;52.164;4.472;2023-04-03T03:55:35;3.56;;;3.51;;
66669;SDS011;53568;52.164;4.472;2023-04-03T03:58:01;3.34;;;3.28;;
66669;SDS011;53568;52.164;4.472;2023-04-03T04:00:27;3.37;;;3.34;;
66669;SDS011;53568;52.164;4.472;2023-04-03T04:02:52;3.45;;;3.42;;
66669;SDS011;53568;52.164;4.472;2023-04-03T04:05:18;3.48;;;3.45;;
66669;SDS011;53568;52.164;4.472;2023-04-03T04:07:43;3.40;;;3.37;;
66669;SDS011;53568;52.164;4.472;2023-04-03T04:10:09;3.44;;;3.40;;
66669;SDS011;53568;52.164;4.472;2023-04-03T04:12:35;3.46;;;3.42;;
66669;SDS011;53568;52.164;4.472;2023-04-03T04:15:01;3.89;;;3.86;;
66669;SDS011;53568;52.164;4.472;2023-04-03T04:17:27;3.42;;;3.39;;
66669;SDS011;53568;52.164;4.472;2023-04-03T04:19:53;3.69;;;3.66;;
66669;SDS011;53568;52.164;4.472;2023-04-03T04:22:18;3.52;;;3.49;;
66669;SDS011;53568;52.164;4.472;2023-04-03T04:24:44;3.72;;;3.67;;
66669;SDS011;53568;52.164;4.472;2023-04-03T04:27:09;3.57;;;3.53;;
66669;SDS011;53568;52.164;4.472;2023-04-03T04:29:35;3.94;;;3.92;;
66669;SDS011;53568;52.164;4.472;2023-04-03T04:32:02;3.77;;;3.73;;
66669;SDS011;53568;52.164;4.472;2023-04-03T04:34:28;3.59;;;3.56;;
66669;SDS011;53568;52.164;4.472;2023-04-03T04:36:54;3.87;;;3.84;;
66669;SDS011;53568;52.164;4.472;2023-04-03T04:39:20;3.78;;;3.75;;
66669;SDS011;53568;52.164;4.472;2023-04-03T04:41:45;3.71;;;3.68;;
66669;SDS011;53568;52.164;4.472;2023-04-03T04:44:11;3.85;;;3.83;;
66669;SDS011;53568;52.164;4.472;2023-04-03T04:46:36;3.75;;;3.73;;
66669;SDS011;53568;52.164;4.472;2023-04-03T04:49:02;3.65;;;3.62;;
66669;SDS011;53568;52.164;4.472;2023-04-03T04:51:27;3.84;;;3.83;;
66669;SDS011;53568;52.164;4.472;2023-04-03T04:53:53;3.82;;;3.80;;
66669;SDS011;53568;52.164;4.472;2023-04-03T04:56:18;3.76;;;3.75;;
66669;SDS011;53568;52.164;4.472;2023-04-03T04:58:44;3.74;;;3.74;;
66669;SDS011;53568;52.164;4.472;2023-04-03T05:01:10;3.84;;;3.82;;
66669;SDS011;53568;52.164;4.472;2023-04-03T05:03:36;3.73;;;3.72;;
66669;SDS011;53568;52.164;4.472;2023-04-03T05:06:03;3.83;;;3.83;;
66669;SDS011;53568;52.164;4.472;2023-04-03T05:08:28;3.98;;;3.97;;
66669;SDS011;53568;52.164;4.472;2023-04-03T05:10:54;4.18;;;4.15;;
66669;SDS011;53568;52.164;4.472;2023-04-03T05:13:20;3.72;;;3.67;;
66669;SDS011;53568;52.164;4.472;2023-04-03T05:15:46;3.99;;;3.97;;
66669;SDS011;53568;52.164;4.472;2023-04-03T05:18:12;4.02;;;4.02;;
66669;SDS011;53568;52.164;4.472;2023-04-03T05:20:38;4.05;;;4.02;;
66669;SDS011;53568;52.164;4.472;2023-04-03T05:23:04;4.00;;;3.98;;
66669;SDS011;53568;52.164;4.472;2023-04-03T05:25:30;4.12;;;4.11;;
66669;SDS011;53568;52.164;4.472;2023-04-03T05:27:56;4.29;;;4.28;;
66669;SDS011;53568;52.164;4.472;2023-04-03T05:30:22;3.85;;;3.85;;
66669;SDS011;53568;52.164;4.472;2023-04-03T05:32:47;4.08;;;4.06;;
66669;SDS011;53568;52.164;4.472;2023-04-03T05:35:13;4.03;;;4.03;;
66669;SDS011;53568;52.164;4.472;2023-04-03T05:37:38;4.11;;;4.11;;
66669;SDS011;53568;52.164;4.472;2023-04-03T05:40:04;4.21;;;4.21;;
66669;SDS011;53568;52.164;4.472;2023-04-03T05:42:31;4.26;;;4.26;;
66669;SDS011;53568;52.164;4.472;2023-04-03T05:44:57;4.18;;;4.18;;
66669;SDS011;53568;52.164;4.472;2023-04-03T05:47:22;4.18;;;4.16;;
66669;SDS011;53568;52.164;4.472;2023-04-03T05:49:48;4.60;;;4.57;;
66669;SDS011;53568;52.164;4.472;2023-04-03T05:52:18;4.15;;;4.13;;
66669;SDS011;53568;52.164;4.472;2023-04-03T05:54:47;4.23;;;4.22;;
66669;SDS011;53568;52.164;4.472;2023-04-03T05:57:15;4.21;;;4.21;;
66669;SDS011;53568;52.164;4.472;2023-04-03T05:59:42;4.17;;;4.14;;
66669;SDS011;53568;52.164;4.472;2023-04-03T06:02:10;3.95;;;3.93;;
66669;SDS011;53568;52.164;4.472;2023-04-03T06:04:41;4.38;;;4.37;;
66669;SDS011;53568;52.164;4.472;2023-04-03T06:07:09;4.47;;;4.46;;
66669;SDS011;53568;52.164;4.472;2023-04-03T06:09:38;4.34;;;4.34;;
66669;SDS011;53568;52.164;4.472;2023-04-03T06:12:04;4.09;;;4.09;;
66669;SDS011;53568;52.164;4.472;2023-04-03T06:14:30;4.43;;;4.43;;
66669;SDS011;53568;52.164;4.472;2023-04-03T06:16:55;4.42;;;4.42;;
66669;SDS011;53568;52.164;4.472;2023-04-03T06:19:21;5.64;;;5.64;;
66669;SDS011;53568;52.164;4.472;2023-04-03T06:21:47;7.73;;;7.72;;
66669;SDS011;53568;52.164;4.472;2023-04-03T06:24:14;5.78;;;5.75;;
66669;SDS011;53568;52.164;4.472;2023-04-03T06:26:42;4.83;;;4.79;;
66669;SDS011;53568;52.164;4.472;2023-04-03T06:29:07;4.51;;;4.49;;
66669;SDS011;53568;52.164;4.472;2023-04-03T06:31:33;4.72;;;4.71;;
66669;SDS011;53568;52.164;4.472;2023-04-03T06:34:01;4.76;;;4.72;;
66669;SDS011;53568;52.164;4.472;2023-04-03T06:36:27;4.61;;;4.60;;
66669;SDS011;53568;52.164;4.472;2023-04-03T06:38:52;4.43;;;4.42;;
66669;SDS011;53568;52.164;4.472;2023-04-03T06:41:18;4.05;;;4.04;;
66669;SDS011;53568;52.164;4.472;2023-04-03T06:43:43;4.21;;;4.21;;
66669;SDS011;53568;52.164;4.472;2023-04-03T06:46:16;4.53;;;4.51;;
66669;SDS011;53568;52.164;4.472;2023-04-03T06:48:44;4.29;;;4.26;;
66669;SDS011;53568;52.164;4.472;2023-04-03T06:51:20;4.48;;;4.43;;
66669;SDS011;53568;52.164;4.472;2023-04-03T06:53:48;4.40;;;4.36;;
66669;SDS011;53568;52.164;4.472;2023-04-03T06:56:14;4.25;;;4.22;;
66669;SDS011;53568;52.164;4.472;2023-04-03T06:58:41;4.36;;;4.36;;
66669;SDS011;53568;52.164;4.472;2023-04-03T07:01:08;4.46;;;4.41;;
66669;SDS011;53568;52.164;4.472;2023-04-03T07:03:35;4.29;;;4.22;;
66669;SDS011;53568;52.164;4.472;2023-04-03T07:06:02;4.36;;;4.32;;
66669;SDS011;53568;52.164;4.472;2023-04-03T07:08:28;4.35;;;4.30;;
66669;SDS011;53568;52.164;4.472;2023-04-03T07:10:54;4.35;;;4.31;;
66669;SDS011;53568;52.164;4.472;2023-04-03T07:13:20;4.18;;;4.16;;
66669;SDS011;53568;52.164;4.472;2023-04-03T07:15:46;4.42;;;4.36;;
66669;SDS011;53568;52.164;4.472;2023-04-03T07:18:11;4.50;;;4.38;;
66669;SDS011;53568;52.164;4.472;2023-04-03T07:20:38;4.39;;;4.28;;
66669;SDS011;53568;52.164;4.472;2023-04-03T07:23:04;4.31;;;4.18;;
66669;SDS011;53568;52.164;4.472;2023-04-03T07:25:29;4.43;;;4.33;;
66669;SDS011;53568;52.164;4.472;2023-04-03T07:27:56;4.22;;;4.17;;
66669;SDS011;53568;52.164;4.472;2023-04-03T07:30:22;4.37;;;4.30;;
66669;SDS011;53568;52.164;4.472;2023-04-03T07:32:48;4.12;;;4.08;;
66669;SDS011;53568;52.164;4.472;2023-04-03T07:35:14;4.05;;;4.05;;
66669;SDS011;53568;52.164;4.472;2023-04-03T07:37:40;4.12;;;4.08;;
66669;SDS011;53568;52.164;4.472;2023-04-03T07:40:06;4.22;;;4.14;;
66669;SDS011;53568;52.164;4.472;2023-04-03T07:42:32;4.00;;;3.97;;
66669;SDS011;53568;52.164;4.472;2023-04-03T07:44:57;3.65;;;3.64;;
66669;SDS011;53568;52.164;4.472;2023-04-03T07:47:23;3.75;;;3.67;;
66669;SDS011;53568;52.164;4.472;2023-04-03T07:49:49;3.89;;;3.75;;
66669;SDS011;53568;52.164;4.472;2023-04-03T07:52:14;4.28;;;4.09;;
66669;SDS011;53568;52.164;4.472;2023-04-03T07:54:40;3.95;;;3.78;;
66669;SDS011;53568;52.164;4.472;2023-04-03T07:57:07;3.90;;;3.75;;
66669;SDS011;53568;52.164;4.472;2023-04-03T07:59:32;3.66;;;3.57;;
66669;SDS011;53568;52.164;4.472;2023-04-03T08:01:58;3.70;;;3.61;;
66669;SDS011;53568;52.164;4.472;2023-04-03T08:04:24;3.82;;;3.72;;
66669;SDS011;53568;52.164;4.472;2023-04-03T08:06:51;3.68;;;3.59;;
66669;SDS011;53568;52.164;4.472;2023-04-03T08:09:17;3.71;;;3.61;;
66669;SDS011;53568;52.164;4.472;2023-04-03T08:11:43;3.47;;;3.39;;
66669;SDS011;53568;52.164;4.472;2023-04-03T08:14:10;3.55;;;3.50;;
66669;SDS011;53568;52.164;4.472;2023-04-03T08:16:40;3.70;;;3.66;;
66669;SDS011;53568;52.164;4.472;2023-04-03T08:19:08;3.52;;;3.48;;
66669;SDS011;53568;52.164;4.472;2023-04-03T08:21:33;3.57;;;3.54;;
66669;SDS011;53568;52.164;4.472;2023-04-03T08:23:58;3.71;;;3.66;;
66669;SDS011;53568;52.164;4.472;2023-04-03T08:26:24;3.76;;;3.69;;
66669;SDS011;53568;52.164;4.472;2023-04-03T08:28:51;3.86;;;3.77;;
66669;SDS011;53568;52.164;4.472;2023-04-03T08:31:18;3.85;;;3.79;;
66669;SDS011;53568;52.164;4.472;2023-04-03T08:33:45;3.67;;;3.60;;
66669;SDS011;53568;52.164;4.472;2023-04-03T08:36:22;3.47;;;3.40;;
66669;SDS011;53568;52.164;4.472;2023-04-03T08:38:50;3.54;;;3.45;;
66669;SDS011;53568;52.164;4.472;2023-04-03T08:49:45;3.36;;;3.27;;
66669;SDS011;53568;52.164;4.472;2023-04-03T08:52:19;3.67;;;3.56;;
66669;SDS011;53568;52.164;4.472;2023-04-03T08:55:31;3.42;;;3.32;;
66669;SDS011;53568;52.164;4.472;2023-04-03T08:58:03;3.67;;;3.60;;
66669;SDS011;53568;52.164;4.472;2023-04-03T09:03:19;3.39;;;3.30;;
66669;SDS011;53568;52.164;4.472;2023-04-03T09:05:57;3.46;;;3.37;;
66669;SDS011;53568;52.164;4.472;2023-04-03T09:08:35;3.40;;;3.34;;
66669;SDS011;53568;52.164;4.472;2023-04-03T09:19:15;2.72;;;2.65;;
66669;SDS011;53568;52.164;4.472;2023-04-03T09:22:20;2.83;;;2.78;;
66669;SDS011;53568;52.164;4.472;2023-04-03T09:25:02;2.75;;;2.71;;
66669;SDS011;53568;52.164;4.472;2023-04-03T09:27:32;2.67;;;2.62;;
66669;SDS011;53568;52.164;4.472;2023-04-03T09:29:58;2.57;;;2.52;;
66669;SDS011;53568;52.164;4.472;2023-04-03T09:32:28;2.30;;;2.27;;
66669;SDS011;53568;52.164;4.472;2023-04-03T09:35:01;2.45;;;2.40;;
66669;SDS011;53568;52.164;4.472;2023-04-03T09:37:39;2.55;;;2.50;;
66669;SDS011;53568;52.164;4.472;2023-04-03T09:41:02;2.41;;;2.37;;
66669;SDS011;53568;52.164;4.472;2023-04-03T09:43:01;2.44;;;2.41;;
66669;SDS011;53568;52.164;4.472;2023-04-03T09:45:44;2.19;;;2.18;;
66669;SDS011;53568;52.164;4.472;2023-04-03T09:53:36;2.20;;;2.14;;
66669;SDS011;53568;52.164;4.472;2023-04-03T09:58:40;2.44;;;2.41;;
66669;SDS011;53568;52.164;4.472;2023-04-03T10:01:24;1.88;;;1.85;;
66669;SDS011;53568;52.164;4.472;2023-04-03T10:04:12;1.96;;;1.93;;
66669;SDS011;53568;52.164;4.472;2023-04-03T10:06:41;2.07;;;2.03;;
66669;SDS011;53568;52.164;4.472;2023-04-03T10:09:25;1.95;;;1.89;;
66669;SDS011;53568;52.164;4.472;2023-04-03T10:12:04;1.73;;;1.68;;
66669;SDS011;53568;52.164;4.472;2023-04-03T10:19:51;1.71;;;1.68;;
66669;SDS011;53568;52.164;4.472;2023-04-03T10:22:48;1.78;;;1.74;;
66669;SDS011;53568;52.164;4.472;2023-04-03T10:28:12;1.69;;;1.64;;
66669;SDS011;53568;52.164;4.472;2023-04-03T10:31:12;1.81;;;1.76;;
66669;SDS011;53568;52.164;4.472;2023-04-03T10:36:33;1.75;;;1.68;;
66669;SDS011;53568;52.164;4.472;2023-04-03T10:39:15;1.67;;;1.60;;
66669;SDS011;53568;52.164;4.472;2023-04-03T10:44:40;1.60;;;1.55;;
66669;SDS011;53568;52.164;4.472;2023-04-03T10:57:47;1.51;;;1.47;;
66669;SDS011;53568;52.164;4.472;2023-04-03T11:00:16;1.45;;;1.42;;
66669;SDS011;53568;52.164;4.472;2023-04-03T11:02:54;1.61;;;1.57;;
66669;SDS011;53568;52.164;4.472;2023-04-03T11:05:27;1.56;;;1.53;;
66669;SDS011;53568;52.164;4.472;2023-04-03T11:10:53;1.47;;;1.46;;
66669;SDS011;53568;52.164;4.472;2023-04-03T11:15:56;1.28;;;1.26;;
66669;SDS011;53568;52.164;4.472;2023-04-03T11:18:27;1.27;;;1.24;;
66669;SDS011;53568;52.164;4.472;2023-04-03T11:21:03;1.43;;;1.39;;
66669;SDS011;53568;52.164;4.472;2023-04-03T11:23:39;1.23;;;1.21;;
66669;SDS011;53568;52.164;4.472;2023-04-03T11:26:13;1.13;;;1.10;;
66669;SDS011;53568;52.164;4.472;2023-04-03T11:28:42;1.10;;;1.07;;
66669;SDS011;53568;52.164;4.472;2023-04-03T11:38:38;1.22;;;1.18;;
66669;SDS011;53568;52.164;4.472;2023-04-03T11:41:10;1.25;;;1.22;;
66669;SDS011;53568;52.164;4.472;2023-04-03T11:43:41;1.28;;;1.24;;
66669;SDS011;53568;52.164;4.472;2023-04-03T11:55:34;1.20;;;1.15;;
66669;SDS011;53568;52.164;4.472;2023-04-03T12:08:45;1.17;;;1.14;;
66669;SDS011;53568;52.164;4.472;2023-04-03T12:11:15;1.34;;;1.31;;
66669;SDS011;53568;52.164;4.472;2023-04-03T12:24:38;1.11;;;1.10;;
66669;SDS011;53568;52.164;4.472;2023-04-03T12:27:09;1.07;;;1.06;;
66669;SDS011;53568;52.164;4.472;2023-04-03T12:29:46;1.16;;;1.14;;
66669;SDS011;53568;52.164;4.472;2023-04-03T12:32:29;1.16;;;1.14;;
66669;SDS011;53568;52.164;4.472;2023-04-03T12:35:30;1.19;;;1.18;;
66669;SDS011;53568;52.164;4.472;2023-04-03T12:40:34;1.26;;;1.24;;
66669;SDS011;53568;52.164;4.472;2023-04-03T12:48:25;1.11;;;1.08;;
66669;SDS011;53568;52.164;4.472;2023-04-03T12:50:53;1.28;;;1.24;;
66669;SDS011;53568;52.164;4.472;2023-04-03T12:53:27;1.24;;;1.20;;
66669;SDS011;53568;52.164;4.472;2023-04-03T12:58:48;1.22;;;1.19;;
66669;SDS011;53568;52.164;4.472;2023-04-03T13:01:16;1.28;;;1.25;;
66669;SDS011;53568;52.164;4.472;2023-04-03T13:03:54;1.33;;;1.31;;
66669;SDS011;53568;52.164;4.472;2023-04-03T13:06:31;1.27;;;1.25;;
66669;SDS011;53568;52.164;4.472;2023-04-03T13:09:04;1.39;;;1.38;;
66669;SDS011;53568;52.164;4.472;2023-04-03T13:11:35;1.48;;;1.46;;
66669;SDS011;53568;52.164;4.472;2023-04-03T13:14:15;1.36;;;1.34;;
66669;SDS011;53568;52.164;4.472;2023-04-03T13:19:26;1.48;;;1.46;;
66669;SDS011;53568;52.164;4.472;2023-04-03T13:22:01;1.55;;;1.54;;
66669;SDS011;53568;52.164;4.472;2023-04-03T13:24:31;1.46;;;1.44;;
66669;SDS011;53568;52.164;4.472;2023-04-03T13:27:01;1.62;;;1.59;;
66669;SDS011;53568;52.164;4.472;2023-04-03T13:29:29;1.60;;;1.56;;
66669;SDS011;53568;52.164;4.472;2023-04-03T13:31:58;1.63;;;1.60;;
66669;SDS011;53568;52.164;4.472;2023-04-03T13:34:27;1.64;;;1.61;;
66669;SDS011;53568;52.164;4.472;2023-04-03T13:37:01;1.61;;;1.59;;
66669;SDS011;53568;52.164;4.472;2023-04-03T13:39:29;1.62;;;1.60;;
66669;SDS011;53568;52.164;4.472;2023-04-03T13:41:58;1.55;;;1.52;;
66669;SDS011;53568;52.164;4.472;2023-04-03T13:44:33;1.55;;;1.51;;
66669;SDS011;53568;52.164;4.472;2023-04-03T13:49:36;1.77;;;1.71;;
66669;SDS011;53568;52.164;4.472;2023-04-03T13:52:20;1.62;;;1.57;;
66669;SDS011;53568;52.164;4.472;2023-04-03T13:54:55;1.84;;;1.79;;
66669;SDS011;53568;52.164;4.472;2023-04-03T13:57:28;1.68;;;1.64;;
66669;SDS011;53568;52.164;4.472;2023-04-03T13:59:53;1.78;;;1.74;;
66669;SDS011;53568;52.164;4.472;2023-04-03T14:02:30;1.90;;;1.83;;
66669;SDS011;53568;52.164;4.472;2023-04-03T14:04:58;1.72;;;1.67;;
66669;SDS011;53568;52.164;4.472;2023-04-03T14:07:27;1.76;;;1.72;;
66669;SDS011;53568;52.164;4.472;2023-04-03T14:09:55;1.79;;;1.75;;
66669;SDS011;53568;52.164;4.472;2023-04-03T14:15:01;1.71;;;1.69;;
66669;SDS011;53568;52.164;4.472;2023-04-03T14:17:30;1.65;;;1.64;;
66669;SDS011;53568;52.164;4.472;2023-04-03T14:19:56;1.70;;;1.68;;
66669;SDS011;53568;52.164;4.472;2023-04-03T14:22:24;1.53;;;1.51;;
66669;SDS011;53568;52.164;4.472;2023-04-03T14:24:53;1.82;;;1.79;;
66669;SDS011;53568;52.164;4.472;2023-04-03T14:27:24;1.96;;;1.92;;
66669;SDS011;53568;52.164;4.472;2023-04-03T14:29:51;1.88;;;1.84;;
66669;SDS011;53568;52.164;4.472;2023-04-03T14:32:21;1.67;;;1.65;;
66669;SDS011;53568;52.164;4.472;2023-04-03T14:34:49;1.76;;;1.73;;
66669;SDS011;53568;52.164;4.472;2023-04-03T14:37:20;1.75;;;1.72;;
66669;SDS011;53568;52.164;4.472;2023-04-03T14:39:48;1.90;;;1.88;;
66669;SDS011;53568;52.164;4.472;2023-04-03T14:42:22;1.87;;;1.84;;
66669;SDS011;53568;52.164;4.472;2023-04-03T14:44:51;2.14;;;2.10;;
66669;SDS011;53568;52.164;4.472;2023-04-03T14:47:21;2.10;;;2.07;;
66669;SDS011;53568;52.164;4.472;2023-04-03T14:49:50;1.96;;;1.95;;
66669;SDS011;53568;52.164;4.472;2023-04-03T14:52:18;1.88;;;1.86;;
66669;SDS011;53568;52.164;4.472;2023-04-03T14:54:49;2.08;;;2.06;;
66669;SDS011;53568;52.164;4.472;2023-04-03T14:57:15;1.99;;;1.97;;
66669;SDS011;53568;52.164;4.472;2023-04-03T14:59:42;1.80;;;1.79;;
66669;SDS011;53568;52.164;4.472;2023-04-03T15:02:24;1.93;;;1.91;;
66669;SDS011;53568;52.164;4.472;2023-04-03T15:04:57;1.93;;;1.91;;
66669;SDS011;53568;52.164;4.472;2023-04-03T15:07:26;2.22;;;2.20;;
66669;SDS011;53568;52.164;4.472;2023-04-03T15:09:54;2.00;;;1.97;;
66669;SDS011;53568;52.164;4.472;2023-04-03T15:12:23;2.38;;;2.34;;
66669;SDS011;53568;52.164;4.472;2023-04-03T15:14:49;2.14;;;2.11;;
66669;SDS011;53568;52.164;4.472;2023-04-03T15:17:16;2.17;;;2.15;;
66669;SDS011;53568;52.164;4.472;2023-04-03T15:19:45;2.07;;;2.05;;
66669;SDS011;53568;52.164;4.472;2023-04-03T15:22:14;2.12;;;2.11;;
66669;SDS011;53568;52.164;4.472;2023-04-03T15:24:43;2.13;;;2.11;;
66669;SDS011;53568;52.164;4.472;2023-04-03T15:27:09;2.11;;;2.09;;
66669;SDS011;53568;52.164;4.472;2023-04-03T15:29:37;1.87;;;1.86;;
66669;SDS011;53568;52.164;4.472;2023-04-03T15:32:05;2.04;;;2.03;;
66669;SDS011;53568;52.164;4.472;2023-04-03T15:34:31;2.10;;;2.10;;
66669;SDS011;53568;52.164;4.472;2023-04-03T15:36:57;2.07;;;2.07;;
66669;SDS011;53568;52.164;4.472;2023-04-03T15:39:24;1.87;;;1.86;;
66669;SDS011;53568;52.164;4.472;2023-04-03T15:41:50;2.17;;;2.15;;
66669;SDS011;53568;52.164;4.472;2023-04-03T15:44:17;1.96;;;1.94;;
66669;SDS011;53568;52.164;4.472;2023-04-03T15:46:44;2.00;;;1.98;;
66669;SDS011;53568;52.164;4.472;2023-04-03T15:49:11;2.03;;;2.00;;
66669;SDS011;53568;52.164;4.472;2023-04-03T15:51:37;2.21;;;2.17;;
66669;SDS011;53568;52.164;4.472;2023-04-03T15:54:03;2.06;;;2.04;;
66669;SDS011;53568;52.164;4.472;2023-04-03T15:56:29;2.10;;;2.08;;
66669;SDS011;53568;52.164;4.472;2023-04-03T15:58:55;2.00;;;1.98;;
66669;SDS011;53568;52.164;4.472;2023-04-03T16:01:20;1.92;;;1.91;;
66669;SDS011;53568;52.164;4.472;2023-04-03T16:03:46;2.18;;;2.17;;
66669;SDS011;53568;52.164;4.472;2023-04-03T16:06:13;2.30;;;2.28;;
66669;SDS011;53568;52.164;4.472;2023-04-03T16:08:40;2.41;;;2.38;;
66669;SDS011;53568;52.164;4.472;2023-04-03T16:11:06;2.20;;;2.17;;
66669;SDS011;53568;52.164;4.472;2023-04-03T16:13:32;2.47;;;2.43;;
66669;SDS011;53568;52.164;4.472;2023-04-03T16:15:58;2.40;;;2.37;;
66669;SDS011;53568;52.164;4.472;2023-04-03T16:18:25;2.34;;;2.30;;
66669;SDS011;53568;52.164;4.472;2023-04-03T16:20:51;2.46;;;2.43;;
66669;SDS011;53568;52.164;4.472;2023-04-03T16:23:17;2.17;;;2.15;;
66669;SDS011;53568;52.164;4.472;2023-04-03T16:25:43;2.40;;;2.37;;
66669;SDS011;53568;52.164;4.472;2023-04-03T16:28:11;2.13;;;2.09;;
66669;SDS011;53568;52.164;4.472;2023-04-03T16:30:39;2.34;;;2.28;;
66669;SDS011;53568;52.164;4.472;2023-04-03T16:33:09;2.45;;;2.38;;
66669;SDS011;53568;52.164;4.472;2023-04-03T16:35:35;2.33;;;2.23;;
66669;SDS011;53568;52.164;4.472;2023-04-03T16:38:01;2.12;;;2.04;;
66669;SDS011;53568;52.164;4.472;2023-04-03T16:40:27;2.22;;;2.15;;
66669;SDS011;53568;52.164;4.472;2023-04-03T16:42:52;2.08;;;2.02;;
66669;SDS011;53568;52.164;4.472;2023-04-03T16:45:18;2.17;;;2.12;;
66669;SDS011;53568;52.164;4.472;2023-04-03T16:47:43;2.16;;;2.09;;
66669;SDS011;53568;52.164;4.472;2023-04-03T16:50:09;1.90;;;1.84;;
66669;SDS011;53568;52.164;4.472;2023-04-03T16:52:36;2.15;;;2.10;;
66669;SDS011;53568;52.164;4.472;2023-04-03T16:55:02;2.29;;;2.23;;
66669;SDS011;53568;52.164;4.472;2023-04-03T16:57:28;2.19;;;2.12;;
66669;SDS011;53568;52.164;4.472;2023-04-03T16:59:53;2.59;;;2.49;;
66669;SDS011;53568;52.164;4.472;2023-04-03T17:02:20;2.39;;;2.28;;
66669;SDS011;53568;52.164;4.472;2023-04-03T17:04:50;2.44;;;2.33;;
66669;SDS011;53568;52.164;4.472;2023-04-03T17:07:16;2.16;;;2.06;;